createdAt,value
2022-12-08T00:00:42.694Z,21.31
2022-12-08T00:01:23.765Z,21.29
2022-12-08T00:02:20.645Z,21.31
2022-12-08T00:03:23.550Z,21.31
2022-12-08T00:04:20.472Z,21.35
2022-12-08T00:05:20.442Z,21.35
2022-12-08T00:06:22.254Z,21.32
2022-12-08T00:07:20.465Z,21.31
2022-12-08T00:13:37.126Z,21.22
2022-12-08T00:14:38.149Z,21.22
2022-12-08T00:15:38.075Z,21.24
2022-12-08T00:16:38.166Z,21.25
2022-12-08T00:17:38.102Z,21.28
2022-12-08T00:18:38.254Z,21.27
2022-12-08T00:19:38.082Z,21.27
2022-12-08T00:20:38.055Z,21.25
2022-12-08T00:21:40.789Z,21.22
2022-12-08T00:22:57.163Z,21.12
2022-12-08T00:23:53.148Z,21.07
2022-12-08T00:24:37.981Z,21.06
2022-12-08T00:25:53.448Z,21.03
2022-12-08T00:32:16.371Z,21.01
2022-12-08T00:33:17.184Z,20.99
2022-12-08T00:34:17.091Z,20.97
2022-12-08T00:35:42.887Z,20.98
2022-12-08T00:36:17.110Z,20.97
2022-12-08T00:37:17.072Z,20.95
2022-12-08T00:38:17.046Z,20.94
2022-12-08T00:39:18.478Z,20.92
2022-12-08T00:40:17.066Z,20.89
2022-12-08T00:41:17.057Z,20.89
2022-12-08T00:42:18.594Z,20.91
2022-12-08T00:43:17.260Z,20.91
2022-12-08T00:44:16.995Z,20.92
2022-12-08T00:49:47.382Z,20.95
2022-12-08T00:53:53.815Z,20.88
2022-12-08T00:54:34.169Z,20.84
2022-12-08T00:55:31.052Z,20.80
2022-12-08T00:56:55.009Z,20.80
2022-12-08T00:57:31.079Z,20.82
2022-12-08T10:31:35.912Z,21.62
2022-12-08T10:32:37.462Z,21.74
2022-12-08T11:23:57.748Z,24.00
2022-12-08T11:24:58.710Z,24.05
2022-12-08T11:27:43.787Z,24.20
2022-12-08T11:28:44.804Z,24.25
2022-12-08T11:29:45.447Z,24.37
2022-12-08T11:31:06.787Z,24.40
2022-12-08T11:31:44.920Z,24.39
2022-12-08T11:32:44.808Z,24.42
2022-12-08T11:33:44.794Z,24.34
2022-12-08T11:35:17.673Z,24.25
2022-12-08T11:35:44.771Z,24.22
2022-12-08T11:36:44.795Z,24.06
2022-12-08T11:37:44.755Z,23.91
2022-12-08T11:38:47.898Z,23.98
2022-12-08T11:39:45.547Z,24.10
2022-12-08T11:40:44.729Z,24.08
2022-12-08T11:41:45.597Z,24.03
2022-12-08T11:42:44.662Z,24.15
2022-12-08T11:43:44.666Z,24.24
2022-12-08T11:44:44.638Z,24.34
2022-12-08T11:45:46.243Z,24.47
2022-12-08T11:46:44.713Z,24.64
2022-12-08T11:47:45.429Z,24.62
2022-12-08T11:48:44.641Z,24.65
2022-12-08T11:49:44.562Z,24.76
2022-12-08T11:50:44.618Z,24.80
2022-12-08T11:51:45.417Z,24.80
2022-12-08T12:47:37.721Z,25.73
2022-12-08T12:48:38.546Z,25.58
2022-12-08T12:49:38.477Z,25.54
2022-12-08T12:50:38.452Z,25.55
2022-12-08T12:51:38.421Z,25.60
2022-12-08T12:52:56.324Z,25.60
2022-12-08T12:53:38.476Z,25.47
2022-12-08T12:54:38.384Z,25.54
2022-12-08T12:55:38.426Z,25.55
2022-12-08T12:56:40.380Z,25.38
2022-12-08T12:57:38.399Z,25.25
2022-12-08T12:58:38.395Z,25.23
2022-12-08T12:59:39.382Z,25.10
2022-12-08T13:00:38.402Z,24.99
2022-12-08T20:20:37.346Z,29.45
2022-12-08T20:21:38.282Z,29.42
2022-12-08T20:22:38.298Z,29.41
2022-12-08T20:23:38.330Z,29.27
2022-12-08T20:24:38.348Z,29.28
2022-12-08T20:25:42.437Z,29.24
2022-12-08T20:26:38.318Z,29.21
2022-12-08T20:31:48.530Z,29.28
2022-12-08T20:32:30.180Z,29.27
2022-12-08T20:33:28.373Z,29.28
2022-12-08T20:34:28.423Z,29.24
2022-12-08T20:35:28.335Z,29.26
2022-12-08T20:36:28.337Z,29.16
2022-12-08T20:37:28.299Z,29.11
2022-12-08T20:38:29.060Z,29.05
2022-12-08T20:39:28.241Z,28.96
2022-12-08T20:54:22.584Z,28.86
2022-12-08T20:55:02.433Z,28.81
2022-12-08T20:56:02.555Z,28.73
2022-12-08T20:57:02.400Z,28.66
2022-12-08T20:58:03.217Z,28.61
2022-12-08T20:59:39.806Z,28.55
2022-12-08T21:00:02.492Z,28.48
2022-12-08T21:01:02.414Z,28.43
2022-12-08T21:02:02.603Z,28.41
2022-12-08T21:03:02.507Z,28.43
2022-12-08T21:04:02.487Z,28.41
2022-12-08T21:05:37.740Z,28.40
2022-12-08T21:06:02.264Z,28.39
2022-12-08T21:07:02.264Z,28.39
2022-12-08T21:08:02.519Z,28.39
2022-12-08T21:33:41.494Z,27.66
2022-12-08T21:34:42.191Z,27.62
2022-12-08T21:35:41.273Z,27.59
2022-12-08T21:42:00.946Z,27.46
2022-12-08T21:43:01.498Z,27.43
2022-12-08T21:44:01.333Z,27.39
2022-12-08T21:45:01.427Z,27.36
2022-12-08T21:46:01.421Z,27.32
2022-12-08T21:47:01.433Z,27.32
2022-12-08T21:48:07.214Z,27.29
2022-12-08T21:49:01.496Z,27.27
2022-12-08T21:50:01.339Z,27.27
2022-12-08T21:51:02.212Z,27.24
2022-12-08T21:52:01.271Z,27.24
2022-12-08T21:53:01.447Z,27.24
2022-12-08T21:54:01.359Z,27.22
2022-12-08T21:55:01.333Z,27.18
2022-12-08T21:56:01.389Z,27.18
2022-12-08T21:57:01.401Z,27.18
2022-12-08T21:58:01.417Z,27.14
2022-12-08T21:59:01.251Z,27.14
2022-12-08T22:00:01.394Z,27.13
2022-12-08T22:01:01.401Z,27.12
2022-12-08T22:02:01.459Z,27.06
2022-12-08T22:03:02.286Z,27.04
2022-12-08T22:04:02.557Z,27.03
2022-12-08T22:05:01.247Z,27.03
2022-12-08T22:06:01.555Z,27.00
2022-12-08T22:07:04.324Z,26.95
2022-12-08T22:08:01.269Z,26.94
2022-12-08T22:09:01.270Z,26.91
2022-12-08T22:10:01.092Z,26.89
2022-12-08T22:11:01.169Z,26.85
2022-12-08T22:12:01.314Z,26.81
2022-12-08T22:13:01.434Z,26.81
2022-12-08T22:14:02.404Z,26.81
2022-12-08T22:15:01.092Z,26.80
2022-12-08T22:16:01.125Z,26.76
2022-12-08T22:17:01.294Z,26.76
2022-12-08T22:18:01.136Z,26.75
2022-12-08T22:19:01.074Z,26.72
2022-12-08T22:20:01.186Z,26.70
2022-12-08T22:21:01.874Z,26.69
2022-12-08T22:22:01.092Z,26.67
2022-12-08T22:23:01.961Z,26.67
2022-12-08T22:24:01.038Z,26.67
2022-12-08T22:25:01.137Z,26.66
2022-12-08T22:26:02.536Z,26.66
2022-12-08T22:27:00.861Z,26.63
2022-12-08T22:28:01.191Z,26.63
2022-12-08T22:29:00.927Z,26.60
2022-12-08T22:30:01.138Z,26.60
2022-12-08T22:31:00.901Z,26.54
2022-12-08T22:32:00.884Z,26.54
2022-12-08T22:33:01.452Z,26.50
2022-12-08T22:34:00.804Z,26.48
2022-12-08T22:35:01.097Z,26.47
2022-12-08T22:36:09.779Z,26.45
2022-12-08T22:37:00.809Z,26.45
2022-12-08T22:38:00.789Z,26.44
2022-12-08T22:39:00.738Z,26.45
2022-12-08T22:40:00.804Z,26.40
2022-12-08T22:41:01.117Z,26.39
2022-12-08T22:42:00.980Z,26.36
2022-12-08T22:43:00.838Z,26.35
2022-12-08T22:44:00.869Z,26.35
2022-12-08T22:45:00.677Z,26.33
2022-12-08T22:46:00.887Z,26.33
2022-12-08T22:47:00.877Z,26.32
2022-12-08T22:48:00.811Z,26.32
2022-12-08T22:49:00.688Z,26.29
2022-12-08T22:50:00.601Z,26.26
2022-12-08T22:51:00.696Z,26.21
2022-12-08T22:52:00.658Z,26.18
2022-12-08T22:53:01.371Z,26.18
2022-12-08T22:54:01.198Z,26.17
2022-12-08T22:55:01.434Z,26.17
2022-12-08T22:56:01.346Z,26.15
2022-12-08T22:57:01.308Z,26.15
2022-12-08T22:58:00.749Z,26.15
2022-12-08T22:59:01.475Z,26.15
2022-12-08T23:00:00.556Z,26.13
2022-12-08T23:01:01.762Z,26.10
2022-12-08T23:02:01.202Z,26.10
2022-12-08T23:03:01.296Z,26.10
2022-12-08T23:04:01.502Z,26.12
2022-12-08T23:05:00.842Z,26.10
2022-12-08T23:06:01.485Z,26.09
2022-12-08T23:07:00.538Z,26.07
2022-12-08T23:08:01.330Z,26.05
2022-12-08T23:09:00.681Z,26.05
2022-12-08T23:10:00.532Z,26.05
2022-12-08T23:11:00.806Z,26.02
2022-12-08T23:12:00.428Z,25.99
2022-12-08T23:13:03.808Z,25.97
2022-12-08T23:14:00.540Z,25.95
2022-12-08T23:15:00.427Z,25.95
2022-12-08T23:16:00.391Z,25.97
2022-12-08T23:17:00.944Z,25.98
2022-12-08T23:18:02.366Z,25.95
2022-12-08T23:19:01.525Z,25.95
2022-12-08T23:20:00.449Z,25.91
2022-12-08T23:21:02.610Z,25.88
2022-12-08T23:22:00.352Z,25.82
2022-12-08T23:23:00.750Z,25.76
2022-12-08T23:24:01.263Z,25.75
2022-12-08T23:25:01.810Z,25.75
2022-12-08T23:26:03.070Z,25.70
2022-12-08T23:27:00.806Z,25.70
2022-12-08T23:28:00.777Z,25.72
2022-12-08T23:29:00.232Z,25.70
2022-12-08T23:30:00.378Z,25.67
2022-12-08T23:31:00.199Z,25.67
2022-12-08T23:32:00.481Z,25.65
2022-12-08T23:33:00.531Z,25.62
2022-12-08T23:34:01.286Z,25.60
2022-12-08T23:35:01.647Z,25.60
2022-12-08T23:36:00.119Z,25.62
2022-12-08T23:37:00.152Z,25.64
2022-12-08T23:38:01.243Z,25.62
2022-12-08T23:39:00.276Z,25.62
2022-12-08T23:40:01.426Z,25.58
2022-12-08T23:41:00.198Z,25.55
2022-12-08T23:42:00.097Z,25.54
2022-12-08T23:43:00.179Z,25.51
2022-12-08T23:44:00.092Z,25.51
2022-12-08T23:45:00.035Z,25.55
2022-12-08T23:46:00.206Z,25.55
2022-12-08T23:47:00.177Z,25.62
2022-12-08T23:48:00.225Z,25.61
2022-12-08T23:48:59.987Z,25.60
2022-12-08T23:50:01.981Z,25.58
2022-12-08T23:51:00.029Z,25.62
2022-12-08T23:52:01.603Z,25.67
2022-12-08T23:53:00.262Z,25.64
2022-12-08T23:53:59.893Z,25.64
2022-12-08T23:54:59.919Z,25.64
2022-12-08T23:56:00.464Z,25.64
2022-12-08T23:57:13.961Z,25.64
2022-12-08T23:58:09.401Z,25.65
2022-12-08T23:58:59.964Z,25.69
